Аэропорт: Гродно. Гродно

ICAO: UMMG

METAR:
2020-10-23 12:00:00
UMMG 231200Z 25005G08MPS CAVOK 15/11 Q1010 R17/CLRD// NOSIG
METAR:
2020-10-23 11:00:00
TAF UMMG 231100Z 2312/2321 25003G08MPS 9999 BKN020 TEMPO 2312/2316 26005G10MPS -SHRA BKN010 SCT016CB TEMPO 2316/2321 24003MPS 2500 -SHRA BKN007CB